Mapleton, Maine
Current Conditions -  °F | °C
As of 12:54 AM on Monday 26 Jan 2015 (Local Time) from KCAR Reporting Station
Clear Clear  
Wind Chill: -15°   Ceiling: Unl
Heat Index:   Visibility: 10mi
Dew Point: -10°   Wind: 13mph
Humidity: 58%   Direction: 300°WNW
Pressure: 29.86"   Gusts: NA
Location:  46.68°N, 68.16°W
Report Text: KCAR 260554Z AUTO 30011KT 10SM CLR M17/M23 A2986 RMK AO2 SLP129 T11671233 11128 21167 51049
Loading
Personal Weather Stations






























Interactive Weather Map New forecast layout! Learn more

10-Day Weather Forecast

Advertisements
Track Severe Weather on mobile